Aviation Digital Data Service (ADDS)

Output produced by METARs form (0250 UTC 22 April 2019)
found at http://www.aviationweather.gov/metar/data/
 
METAR text: UGSB 220230Z 15003KT 9999 -RA FEW013 BKN023 07/07 Q1017 R13/2///55 NOSIG
Conditions at: UGSB (BATUMI , GE) observed 0230 UTC 22 April 2019
Temperature: 7.0°C (45°F)
Dewpoint: 7.0°C (45°F) [RH = 100%]
Pressure (altimeter): 30.03 inches Hg (1017.0 mb)
Winds: from the SSE (150 degrees) at 3 MPH (3 knots; 1.5 m/s)
Visibility: 6 or more miles (10+ km)
Ceiling: 2300 feet AGL
Clouds: few clouds at 1300 feet AGL
broken clouds at 2300 feet AGL
Weather: -RA  (light rain)

METAR text: UGSB 220200Z VRB02KT 9999 FEW015 BKN023 07/06 Q1017 R13/2///55 NOSIG
Conditions at: UGSB (BATUMI , GE) observed 0200 UTC 22 April 2019
Temperature: 7.0°C (45°F)
Dewpoint: 6.0°C (43°F) [RH = 93%]
Pressure (altimeter): 30.03 inches Hg (1017.0 mb)
Winds: variable direction winds at 2 MPH (2 knots; 1.0 m/s)
Visibility: 6 or more miles (10+ km)
Ceiling: 2300 feet AGL
Clouds: few clouds at 1500 feet AGL
broken clouds at 2300 feet AGL
Weather: no significant weather observed at this time

METAR text: UGSB 220130Z 15003KT 9999 FEW016 BKN023 07/06 Q1017 R13/2///55 NOSIG
Conditions at: UGSB (BATUMI , GE) observed 0130 UTC 22 April 2019
Temperature: 7.0°C (45°F)
Dewpoint: 6.0°C (43°F) [RH = 93%]
Pressure (altimeter): 30.03 inches Hg (1017.0 mb)
Winds: from the SSE (150 degrees) at 3 MPH (3 knots; 1.5 m/s)
Visibility: 6 or more miles (10+ km)
Ceiling: 2300 feet AGL
Clouds: few clouds at 1600 feet AGL
broken clouds at 2300 feet AGL
Weather: no significant weather observed at this time

METAR text: UGSB 220100Z 15004KT 9999 BKN023 07/06 Q1017 R13/2///55 NOSIG
Conditions at: UGSB (BATUMI , GE) observed 0100 UTC 22 April 2019
Temperature: 7.0°C (45°F)
Dewpoint: 6.0°C (43°F) [RH = 93%]
Pressure (altimeter): 30.03 inches Hg (1017.0 mb)
Winds: from the SSE (150 degrees) at 5 MPH (4 knots; 2.1 m/s)
Visibility: 6 or more miles (10+ km)
Ceiling: 2300 feet AGL
Clouds: broken clouds at 2300 feet AGL
Weather: no significant weather observed at this time

METAR text: UGSB 220030Z 13005KT 9999 BKN020 07/06 Q1018 R13/2///55 NOSIG
Conditions at: UGSB (BATUMI , GE) observed 0030 UTC 22 April 2019
Temperature: 7.0°C (45°F)
Dewpoint: 6.0°C (43°F) [RH = 93%]
Pressure (altimeter): 30.06 inches Hg (1018.0 mb)
Winds: from the SE (130 degrees) at 6 MPH (5 knots; 2.6 m/s)
Visibility: 6 or more miles (10+ km)
Ceiling: 2000 feet AGL
Clouds: broken clouds at 2000 feet AGL
Weather: no significant weather observed at this time

METAR text: UGSB 220000Z 14004KT 9999 BKN018 07/07 Q1018 R13/2///55 NOSIG
Conditions at: UGSB (BATUMI , GE) observed 0000 UTC 22 April 2019
Temperature: 7.0°C (45°F)
Dewpoint: 7.0°C (45°F) [RH = 100%]
Pressure (altimeter): 30.06 inches Hg (1018.0 mb)
Winds: from the SE (140 degrees) at 5 MPH (4 knots; 2.1 m/s)
Visibility: 6 or more miles (10+ km)
Ceiling: 1800 feet AGL
Clouds: broken clouds at 1800 feet AGL
Weather: no significant weather observed at this time

METAR text: UGSB 212330Z 15002KT 9999 -RA BKN019 07/06 Q1018 R13/2///55 NOSIG
Conditions at: UGSB (BATUMI , GE) observed 2330 UTC 21 April 2019
Temperature: 7.0°C (45°F)
Dewpoint: 6.0°C (43°F) [RH = 93%]
Pressure (altimeter): 30.06 inches Hg (1018.0 mb)
Winds: from the SSE (150 degrees) at 2 MPH (2 knots; 1.0 m/s)
Visibility: 6 or more miles (10+ km)
Ceiling: 1900 feet AGL
Clouds: broken clouds at 1900 feet AGL
Weather: -RA  (light rain)

METAR text: UGSB 212300Z 15003KT 9999 -RA BKN022 07/06 Q1018 R13/2///55 NOSIG
Conditions at: UGSB (BATUMI , GE) observed 2300 UTC 21 April 2019
Temperature: 7.0°C (45°F)
Dewpoint: 6.0°C (43°F) [RH = 93%]
Pressure (altimeter): 30.06 inches Hg (1018.0 mb)
Winds: from the SSE (150 degrees) at 3 MPH (3 knots; 1.5 m/s)
Visibility: 6 or more miles (10+ km)
Ceiling: 2200 feet AGL
Clouds: broken clouds at 2200 feet AGL
Weather: -RA  (light rain)

METAR text: UGSB 212230Z 16003KT 9999 -RA BKN021 07/06 Q1018 R13/2///55 NOSIG
Conditions at: UGSB (BATUMI , GE) observed 2230 UTC 21 April 2019
Temperature: 7.0°C (45°F)
Dewpoint: 6.0°C (43°F) [RH = 93%]
Pressure (altimeter): 30.06 inches Hg (1018.0 mb)
Winds: from the SSE (160 degrees) at 3 MPH (3 knots; 1.5 m/s)
Visibility: 6 or more miles (10+ km)
Ceiling: 2100 feet AGL
Clouds: broken clouds at 2100 feet AGL
Weather: -RA  (light rain)

METAR text: UGSB 212200Z 17003KT 140V200 9999 -RA BKN020 07/06 Q1018 R13/2///55 NOSIG
Conditions at: UGSB (BATUMI , GE) observed 2200 UTC 21 April 2019
Temperature: 7.0°C (45°F)
Dewpoint: 6.0°C (43°F) [RH = 93%]
Pressure (altimeter): 30.06 inches Hg (1018.0 mb)
Winds: from the S (170 degrees) at 3 MPH (3 knots; 1.5 m/s)
Visibility: 6 or more miles (10+ km)
Ceiling: 2000 feet AGL
Clouds: broken clouds at 2000 feet AGL
Weather: -RA  (light rain)

METAR text: UGSB 212130Z 17004KT 9999 -RA OVC017 07/06 Q1018 R13/2///55 NOSIG
Conditions at: UGSB (BATUMI , GE) observed 2130 UTC 21 April 2019
Temperature: 7.0°C (45°F)
Dewpoint: 6.0°C (43°F) [RH = 93%]
Pressure (altimeter): 30.06 inches Hg (1018.0 mb)
Winds: from the S (170 degrees) at 5 MPH (4 knots; 2.1 m/s)
Visibility: 6 or more miles (10+ km)
Ceiling: 1700 feet AGL
Clouds: overcast cloud deck at 1700 feet AGL
Weather: -RA  (light rain)

METAR text: UGSB 212100Z 15004KT 9999 -RA BKN020 07/06 Q1018 R13/2///55 NOSIG
Conditions at: UGSB (BATUMI , GE) observed 2100 UTC 21 April 2019
Temperature: 7.0°C (45°F)
Dewpoint: 6.0°C (43°F) [RH = 93%]
Pressure (altimeter): 30.06 inches Hg (1018.0 mb)
Winds: from the SSE (150 degrees) at 5 MPH (4 knots; 2.1 m/s)
Visibility: 6 or more miles (10+ km)
Ceiling: 2000 feet AGL
Clouds: broken clouds at 2000 feet AGL
Weather: -RA  (light rain)

METAR text: UGSB 212030Z 14003KT 9999 -RA BKN021 07/06 Q1018 R13/2///55 NOSIG
Conditions at: UGSB (BATUMI , GE) observed 2030 UTC 21 April 2019
Temperature: 7.0°C (45°F)
Dewpoint: 6.0°C (43°F) [RH = 93%]
Pressure (altimeter): 30.06 inches Hg (1018.0 mb)
Winds: from the SE (140 degrees) at 3 MPH (3 knots; 1.5 m/s)
Visibility: 6 or more miles (10+ km)
Ceiling: 2100 feet AGL
Clouds: broken clouds at 2100 feet AGL
Weather: -RA  (light rain)

METAR text: UGSB 212000Z 15003KT 9999 -RA BKN022 07/06 Q1018 R13/2///55 NOSIG
Conditions at: UGSB (BATUMI , GE) observed 2000 UTC 21 April 2019
Temperature: 7.0°C (45°F)
Dewpoint: 6.0°C (43°F) [RH = 93%]
Pressure (altimeter): 30.06 inches Hg (1018.0 mb)
Winds: from the SSE (150 degrees) at 3 MPH (3 knots; 1.5 m/s)
Visibility: 6 or more miles (10+ km)
Ceiling: 2200 feet AGL
Clouds: broken clouds at 2200 feet AGL
Weather: -RA  (light rain)

METAR text: UGSB 211930Z 16004KT 9999 -RA BKN024 07/06 Q1018 R13/2///55 NOSIG
Conditions at: UGSB (BATUMI , GE) observed 1930 UTC 21 April 2019
Temperature: 7.0°C (45°F)
Dewpoint: 6.0°C (43°F) [RH = 93%]
Pressure (altimeter): 30.06 inches Hg (1018.0 mb)
Winds: from the SSE (160 degrees) at 5 MPH (4 knots; 2.1 m/s)
Visibility: 6 or more miles (10+ km)
Ceiling: 2400 feet AGL
Clouds: broken clouds at 2400 feet AGL
Weather: -RA  (light rain)

METAR text: UGSB 211900Z 15003KT 9999 -RA BKN028 07/06 Q1018 R13/2///55 NOSIG
Conditions at: UGSB (BATUMI , GE) observed 1900 UTC 21 April 2019
Temperature: 7.0°C (45°F)
Dewpoint: 6.0°C (43°F) [RH = 93%]
Pressure (altimeter): 30.06 inches Hg (1018.0 mb)
Winds: from the SSE (150 degrees) at 3 MPH (3 knots; 1.5 m/s)
Visibility: 6 or more miles (10+ km)
Ceiling: 2800 feet AGL
Clouds: broken clouds at 2800 feet AGL
Weather: -RA  (light rain)

METAR text: UGSB 211830Z 17003KT 9999 -RA BKN025 07/07 Q1018 R13/2///55 NOSIG
Conditions at: UGSB (BATUMI , GE) observed 1830 UTC 21 April 2019
Temperature: 7.0°C (45°F)
Dewpoint: 7.0°C (45°F) [RH = 100%]
Pressure (altimeter): 30.06 inches Hg (1018.0 mb)
Winds: from the S (170 degrees) at 3 MPH (3 knots; 1.5 m/s)
Visibility: 6 or more miles (10+ km)
Ceiling: 2500 feet AGL
Clouds: broken clouds at 2500 feet AGL
Weather: -RA  (light rain)

METAR text: UGSB 211800Z 21004KT 9999 -RA BKN026 08/06 Q1018 R13/2///55 NOSIG
Conditions at: UGSB (BATUMI , GE) observed 1800 UTC 21 April 2019
Temperature: 8.0°C (46°F)
Dewpoint: 6.0°C (43°F) [RH = 87%]
Pressure (altimeter): 30.06 inches Hg (1018.0 mb)
Winds: from the SSW (210 degrees) at 5 MPH (4 knots; 2.1 m/s)
Visibility: 6 or more miles (10+ km)
Ceiling: 2600 feet AGL
Clouds: broken clouds at 2600 feet AGL
Weather: -RA  (light rain)

METAR text: UGSB 211730Z 20004KT 9999 -RA FEW010 BKN026 08/07 Q1018 R13/2///55 NOSIG
Conditions at: UGSB (BATUMI , GE) observed 1730 UTC 21 April 2019
Temperature: 8.0°C (46°F)
Dewpoint: 7.0°C (45°F) [RH = 93%]
Pressure (altimeter): 30.06 inches Hg (1018.0 mb)
Winds: from the SSW (200 degrees) at 5 MPH (4 knots; 2.1 m/s)
Visibility: 6 or more miles (10+ km)
Ceiling: 2600 feet AGL
Clouds: few clouds at 1000 feet AGL
broken clouds at 2600 feet AGL
Weather: -RA  (light rain)

METAR text: UGSB 211700Z 24011KT 9999 -RA FEW011 BKN026 09/08 Q1018 R13/2///55 NOSIG
Conditions at: UGSB (BATUMI , GE) observed 1700 UTC 21 April 2019
Temperature: 9.0°C (48°F)
Dewpoint: 8.0°C (46°F) [RH = 93%]
Pressure (altimeter): 30.06 inches Hg (1018.0 mb)
Winds: from the WSW (240 degrees) at 13 MPH (11 knots; 5.7 m/s)
Visibility: 6 or more miles (10+ km)
Ceiling: 2600 feet AGL
Clouds: few clouds at 1100 feet AGL
broken clouds at 2600 feet AGL
Weather: -RA  (light rain)

METAR text: UGSB 211630Z 23012KT 9999 -RA FEW011 BKN025 09/07 Q1018 R13/2///55 NOSIG
Conditions at: UGSB (BATUMI , GE) observed 1630 UTC 21 April 2019
Temperature: 9.0°C (48°F)
Dewpoint: 7.0°C (45°F) [RH = 87%]
Pressure (altimeter): 30.06 inches Hg (1018.0 mb)
Winds: from the SW (230 degrees) at 14 MPH (12 knots; 6.2 m/s)
Visibility: 6 or more miles (10+ km)
Ceiling: 2500 feet AGL
Clouds: few clouds at 1100 feet AGL
broken clouds at 2500 feet AGL
Weather: -RA  (light rain)

METAR text: UGSB 211600Z 22008KT 9999 -SHRA FEW010 BKN024CB 09/08 Q1017 R13/2///55 NOSIG
Conditions at: UGSB (BATUMI , GE) observed 1600 UTC 21 April 2019
Temperature: 9.0°C (48°F)
Dewpoint: 8.0°C (46°F) [RH = 93%]
Pressure (altimeter): 30.03 inches Hg (1017.0 mb)
Winds: from the SW (220 degrees) at 9 MPH (8 knots; 4.1 m/s)
Visibility: 6 or more miles (10+ km)
Ceiling: 2400 feet AGL
Clouds: few clouds at 1000 feet AGL
broken clouds at 2400 feet AGL
Weather: -SHRA  (light rain showers)

METAR text: UGSB 211530Z 22009KT 9999 -SHRA SCT010 BKN021CB 09/08 Q1017 R13/2///55 NOSIG
Conditions at: UGSB (BATUMI , GE) observed 1530 UTC 21 April 2019
Temperature: 9.0°C (48°F)
Dewpoint: 8.0°C (46°F) [RH = 93%]
Pressure (altimeter): 30.03 inches Hg (1017.0 mb)
Winds: from the SW (220 degrees) at 10 MPH (9 knots; 4.6 m/s)
Visibility: 6 or more miles (10+ km)
Ceiling: 2100 feet AGL
Clouds: scattered clouds at 1000 feet AGL
broken clouds at 2100 feet AGL
Weather: -SHRA  (light rain showers)

METAR text: UGSB 211500Z 23010KT 9999 -SHRA SCT010 BKN020CB 09/08 Q1017 R13/2///55 NOSIG
Conditions at: UGSB (BATUMI , GE) observed 1500 UTC 21 April 2019
Temperature: 9.0°C (48°F)
Dewpoint: 8.0°C (46°F) [RH = 93%]
Pressure (altimeter): 30.03 inches Hg (1017.0 mb)
Winds: from the SW (230 degrees) at 12 MPH (10 knots; 5.1 m/s)
Visibility: 6 or more miles (10+ km)
Ceiling: 2000 feet AGL
Clouds: scattered clouds at 1000 feet AGL
broken clouds at 2000 feet AGL
Weather: -SHRA  (light rain showers)

METAR text: UGSB 211430Z 22010KT 6000 -SHRA SCT010 BKN023CB 09/08 Q1017 R13/2///55 NOSIG
Conditions at: UGSB (BATUMI , GE) observed 1430 UTC 21 April 2019
Temperature: 9.0°C (48°F)
Dewpoint: 8.0°C (46°F) [RH = 93%]
Pressure (altimeter): 30.03 inches Hg (1017.0 mb)
Winds: from the SW (220 degrees) at 12 MPH (10 knots; 5.1 m/s)
Visibility: 4 miles ( 6 km)
Ceiling: 2300 feet AGL
Clouds: scattered clouds at 1000 feet AGL
broken clouds at 2300 feet AGL
Weather: -SHRA  (light rain showers)

METAR text: UGSB 211400Z 22009KT 9999 -RA SCT012 BKN023 09/07 Q1017 NOSIG
Conditions at: UGSB (BATUMI , GE) observed 1400 UTC 21 April 2019
Temperature: 9.0°C (48°F)
Dewpoint: 7.0°C (45°F) [RH = 87%]
Pressure (altimeter): 30.03 inches Hg (1017.0 mb)
Winds: from the SW (220 degrees) at 10 MPH (9 knots; 4.6 m/s)
Visibility: 6 or more miles (10+ km)
Ceiling: 2300 feet AGL
Clouds: scattered clouds at 1200 feet AGL
broken clouds at 2300 feet AGL
Weather: -RA  (light rain)

METAR text: UGSB 211330Z 24011KT 9999 SCT012 BKN023 10/07 Q1017 NOSIG
Conditions at: UGSB (BATUMI , GE) observed 1330 UTC 21 April 2019
Temperature: 10.0°C (50°F)
Dewpoint: 7.0°C (45°F) [RH = 82%]
Pressure (altimeter): 30.03 inches Hg (1017.0 mb)
Winds: from the WSW (240 degrees) at 13 MPH (11 knots; 5.7 m/s)
Visibility: 6 or more miles (10+ km)
Ceiling: 2300 feet AGL
Clouds: scattered clouds at 1200 feet AGL
broken clouds at 2300 feet AGL
Weather: no significant weather observed at this time

METAR text: UGSB 211300Z 24012KT 9999 -RA SCT013 BKN028 10/07 Q1017 NOSIG
Conditions at: UGSB (BATUMI , GE) observed 1300 UTC 21 April 2019
Temperature: 10.0°C (50°F)
Dewpoint: 7.0°C (45°F) [RH = 82%]
Pressure (altimeter): 30.03 inches Hg (1017.0 mb)
Winds: from the WSW (240 degrees) at 14 MPH (12 knots; 6.2 m/s)
Visibility: 6 or more miles (10+ km)
Ceiling: 2800 feet AGL
Clouds: scattered clouds at 1300 feet AGL
broken clouds at 2800 feet AGL
Weather: -RA  (light rain)

METAR text: UGSB 211230Z 24011KT 9999 -RA FEW014 BKN026 10/07 Q1017 NOSIG
Conditions at: UGSB (BATUMI , GE) observed 1230 UTC 21 April 2019
Temperature: 10.0°C (50°F)
Dewpoint: 7.0°C (45°F) [RH = 82%]
Pressure (altimeter): 30.03 inches Hg (1017.0 mb)
Winds: from the WSW (240 degrees) at 13 MPH (11 knots; 5.7 m/s)
Visibility: 6 or more miles (10+ km)
Ceiling: 2600 feet AGL
Clouds: few clouds at 1400 feet AGL
broken clouds at 2600 feet AGL
Weather: -RA  (light rain)

METAR text: UGSB 211200Z 23012KT 9999 FEW012 BKN024 10/07 Q1016 NOSIG
Conditions at: UGSB (BATUMI , GE) observed 1200 UTC 21 April 2019
Temperature: 10.0°C (50°F)
Dewpoint: 7.0°C (45°F) [RH = 82%]
Pressure (altimeter): 30.00 inches Hg (1016.0 mb)
Winds: from the SW (230 degrees) at 14 MPH (12 knots; 6.2 m/s)
Visibility: 6 or more miles (10+ km)
Ceiling: 2400 feet AGL
Clouds: few clouds at 1200 feet AGL
broken clouds at 2400 feet AGL
Weather: no significant weather observed at this time

METAR text: UGSB 211130Z 24010KT 9999 SCT013 BKN020 10/07 Q1016 NOSIG
Conditions at: UGSB (BATUMI , GE) observed 1130 UTC 21 April 2019
Temperature: 10.0°C (50°F)
Dewpoint: 7.0°C (45°F) [RH = 82%]
Pressure (altimeter): 30.00 inches Hg (1016.0 mb)
Winds: from the WSW (240 degrees) at 12 MPH (10 knots; 5.1 m/s)
Visibility: 6 or more miles (10+ km)
Ceiling: 2000 feet AGL
Clouds: scattered clouds at 1300 feet AGL
broken clouds at 2000 feet AGL
Weather: no significant weather observed at this time

METAR text: UGSB 211100Z 25009KT 9999 SCT014 BKN023 10/07 Q1017 NOSIG
Conditions at: UGSB (BATUMI , GE) observed 1100 UTC 21 April 2019
Temperature: 10.0°C (50°F)
Dewpoint: 7.0°C (45°F) [RH = 82%]
Pressure (altimeter): 30.03 inches Hg (1017.0 mb)
Winds: from the WSW (250 degrees) at 10 MPH (9 knots; 4.6 m/s)
Visibility: 6 or more miles (10+ km)
Ceiling: 2300 feet AGL
Clouds: scattered clouds at 1400 feet AGL
broken clouds at 2300 feet AGL
Weather: no significant weather observed at this time

METAR text: UGSB 211030Z 25009KT 9999 SCT013 BKN023 10/07 Q1016 NOSIG
Conditions at: UGSB (BATUMI , GE) observed 1030 UTC 21 April 2019
Temperature: 10.0°C (50°F)
Dewpoint: 7.0°C (45°F) [RH = 82%]
Pressure (altimeter): 30.00 inches Hg (1016.0 mb)
Winds: from the WSW (250 degrees) at 10 MPH (9 knots; 4.6 m/s)
Visibility: 6 or more miles (10+ km)
Ceiling: 2300 feet AGL
Clouds: scattered clouds at 1300 feet AGL
broken clouds at 2300 feet AGL
Weather: no significant weather observed at this time

METAR text: UGSB 211000Z 24008KT 9999 SCT013 BKN022 11/08 Q1016 NOSIG
Conditions at: UGSB (BATUMI , GE) observed 1000 UTC 21 April 2019
Temperature: 11.0°C (52°F)
Dewpoint: 8.0°C (46°F) [RH = 82%]
Pressure (altimeter): 30.00 inches Hg (1016.0 mb)
Winds: from the WSW (240 degrees) at 9 MPH (8 knots; 4.1 m/s)
Visibility: 6 or more miles (10+ km)
Ceiling: 2200 feet AGL
Clouds: scattered clouds at 1300 feet AGL
broken clouds at 2200 feet AGL
Weather: no significant weather observed at this time

METAR text: UGSB 210930Z 24010KT 9999 SCT013 BKN024 10/07 Q1016 NOSIG
Conditions at: UGSB (BATUMI , GE) observed 0930 UTC 21 April 2019
Temperature: 10.0°C (50°F)
Dewpoint: 7.0°C (45°F) [RH = 82%]
Pressure (altimeter): 30.00 inches Hg (1016.0 mb)
Winds: from the WSW (240 degrees) at 12 MPH (10 knots; 5.1 m/s)
Visibility: 6 or more miles (10+ km)
Ceiling: 2400 feet AGL
Clouds: scattered clouds at 1300 feet AGL
broken clouds at 2400 feet AGL
Weather: no significant weather observed at this time

METAR text: UGSB 210900Z 25010KT 9999 FEW015 BKN033 10/07 Q1016 NOSIG
Conditions at: UGSB (BATUMI , GE) observed 0900 UTC 21 April 2019
Temperature: 10.0°C (50°F)
Dewpoint: 7.0°C (45°F) [RH = 82%]
Pressure (altimeter): 30.00 inches Hg (1016.0 mb)
Winds: from the WSW (250 degrees) at 12 MPH (10 knots; 5.1 m/s)
Visibility: 6 or more miles (10+ km)
Ceiling: 3300 feet AGL
Clouds: few clouds at 1500 feet AGL
broken clouds at 3300 feet AGL
Weather: no significant weather observed at this time

METAR text: UGSB 210830Z 24010KT 9999 FEW015 BKN032 10/07 Q1016 R13/1///60 NOSIG
Conditions at: UGSB (BATUMI , GE) observed 0830 UTC 21 April 2019
Temperature: 10.0°C (50°F)
Dewpoint: 7.0°C (45°F) [RH = 82%]
Pressure (altimeter): 30.00 inches Hg (1016.0 mb)
Winds: from the WSW (240 degrees) at 12 MPH (10 knots; 5.1 m/s)
Visibility: 6 or more miles (10+ km)
Ceiling: 3200 feet AGL
Clouds: few clouds at 1500 feet AGL
broken clouds at 3200 feet AGL
Weather: no significant weather observed at this time

METAR text: UGSB 210800Z 25009KT 9999 FEW015 BKN030 10/07 Q1016 R13/1///60 NOSIG
Conditions at: UGSB (BATUMI , GE) observed 0800 UTC 21 April 2019
Temperature: 10.0°C (50°F)
Dewpoint: 7.0°C (45°F) [RH = 82%]
Pressure (altimeter): 30.00 inches Hg (1016.0 mb)
Winds: from the WSW (250 degrees) at 10 MPH (9 knots; 4.6 m/s)
Visibility: 6 or more miles (10+ km)
Ceiling: 3000 feet AGL
Clouds: few clouds at 1500 feet AGL
broken clouds at 3000 feet AGL
Weather: no significant weather observed at this time

METAR text: UGSB 210730Z 25009KT 9999 FEW016 BKN030 10/07 Q1016 R13/1///60 NOSIG
Conditions at: UGSB (BATUMI , GE) observed 0730 UTC 21 April 2019
Temperature: 10.0°C (50°F)
Dewpoint: 7.0°C (45°F) [RH = 82%]
Pressure (altimeter): 30.00 inches Hg (1016.0 mb)
Winds: from the WSW (250 degrees) at 10 MPH (9 knots; 4.6 m/s)
Visibility: 6 or more miles (10+ km)
Ceiling: 3000 feet AGL
Clouds: few clouds at 1600 feet AGL
broken clouds at 3000 feet AGL
Weather: no significant weather observed at this time

METAR text: UGSB 210700Z 24008KT 9999 FEW016 BKN028 10/07 Q1016 R13/1///60 NOSIG
Conditions at: UGSB (BATUMI , GE) observed 0700 UTC 21 April 2019
Temperature: 10.0°C (50°F)
Dewpoint: 7.0°C (45°F) [RH = 82%]
Pressure (altimeter): 30.00 inches Hg (1016.0 mb)
Winds: from the WSW (240 degrees) at 9 MPH (8 knots; 4.1 m/s)
Visibility: 6 or more miles (10+ km)
Ceiling: 2800 feet AGL
Clouds: few clouds at 1600 feet AGL
broken clouds at 2800 feet AGL
Weather: no significant weather observed at this time

METAR text: UGSB 210630Z 23008KT 9999 FEW012 BKN028 09/06 Q1016 R13/1///60 NOSIG
Conditions at: UGSB (BATUMI , GE) observed 0630 UTC 21 April 2019
Temperature: 9.0°C (48°F)
Dewpoint: 6.0°C (43°F) [RH = 81%]
Pressure (altimeter): 30.00 inches Hg (1016.0 mb)
Winds: from the SW (230 degrees) at 9 MPH (8 knots; 4.1 m/s)
Visibility: 6 or more miles (10+ km)
Ceiling: 2800 feet AGL
Clouds: few clouds at 1200 feet AGL
broken clouds at 2800 feet AGL
Weather: no significant weather observed at this time

METAR text: UGSB 210600Z 24009KT 9999 SCT010 BKN018 09/07 Q1016 R13/1///60 NOSIG
Conditions at: UGSB (BATUMI , GE) observed 0600 UTC 21 April 2019
Temperature: 9.0°C (48°F)
Dewpoint: 7.0°C (45°F) [RH = 87%]
Pressure (altimeter): 30.00 inches Hg (1016.0 mb)
Winds: from the WSW (240 degrees) at 10 MPH (9 knots; 4.6 m/s)
Visibility: 6 or more miles (10+ km)
Ceiling: 1800 feet AGL
Clouds: scattered clouds at 1000 feet AGL
broken clouds at 1800 feet AGL
Weather: no significant weather observed at this time

METAR text: UGSB 210530Z 23008KT 9999 SCT010 BKN016CB 08/07 Q1015 R13/1///60 NOSIG
Conditions at: UGSB (BATUMI , GE) observed 0530 UTC 21 April 2019
Temperature: 8.0°C (46°F)
Dewpoint: 7.0°C (45°F) [RH = 93%]
Pressure (altimeter): 29.97 inches Hg (1015.0 mb)
Winds: from the SW (230 degrees) at 9 MPH (8 knots; 4.1 m/s)
Visibility: 6 or more miles (10+ km)
Ceiling: 1600 feet AGL
Clouds: scattered clouds at 1000 feet AGL
broken clouds at 1600 feet AGL
Weather: no significant weather observed at this time

METAR text: UGSB 210500Z 23008KT 9999 SCT010 BKN020CB 08/07 Q1015 R13/1///60 NOSIG
Conditions at: UGSB (BATUMI , GE) observed 0500 UTC 21 April 2019
Temperature: 8.0°C (46°F)
Dewpoint: 7.0°C (45°F) [RH = 93%]
Pressure (altimeter): 29.97 inches Hg (1015.0 mb)
Winds: from the SW (230 degrees) at 9 MPH (8 knots; 4.1 m/s)
Visibility: 6 or more miles (10+ km)
Ceiling: 2000 feet AGL
Clouds: scattered clouds at 1000 feet AGL
broken clouds at 2000 feet AGL
Weather: no significant weather observed at this time

METAR text: UGSB 210430Z 22007KT 200V260 9999 SCT010 OVC021 08/07 Q1015 R13/1///60 NOSIG
Conditions at: UGSB (BATUMI , GE) observed 0430 UTC 21 April 2019
Temperature: 8.0°C (46°F)
Dewpoint: 7.0°C (45°F) [RH = 93%]
Pressure (altimeter): 29.97 inches Hg (1015.0 mb)
Winds: from the SW (220 degrees) at 8 MPH (7 knots; 3.6 m/s)
Visibility: 6 or more miles (10+ km)
Ceiling: 2100 feet AGL
Clouds: scattered clouds at 1000 feet AGL
overcast cloud deck at 2100 feet AGL
Weather: no significant weather observed at this time

METAR text: UGSB 210400Z 22006KT 6000 -RA SCT009 OVC019 08/07 Q1015 R13/1///60 NOSIG
Conditions at: UGSB (BATUMI , GE) observed 0400 UTC 21 April 2019
Temperature: 8.0°C (46°F)
Dewpoint: 7.0°C (45°F) [RH = 93%]
Pressure (altimeter): 29.97 inches Hg (1015.0 mb)
Winds: from the SW (220 degrees) at 7 MPH (6 knots; 3.1 m/s)
Visibility: 4 miles ( 6 km)
Ceiling: 1900 feet AGL
Clouds: scattered clouds at 900 feet AGL
overcast cloud deck at 1900 feet AGL
Weather: -RA  (light rain)

METAR text: UGSB 210330Z 21006KT 180V240 3800 -RA BR SCT008 OVC018 08/07 Q1015 NOSIG
Conditions at: UGSB (BATUMI , GE) observed 0330 UTC 21 April 2019
Temperature: 8.0°C (46°F)
Dewpoint: 7.0°C (45°F) [RH = 93%]
Pressure (altimeter): 29.97 inches Hg (1015.0 mb)
Winds: from the SSW (210 degrees) at 7 MPH (6 knots; 3.1 m/s)
Visibility: 2.36 miles (3.80 km)
Ceiling: 1800 feet AGL
Clouds: scattered clouds at 800 feet AGL
overcast cloud deck at 1800 feet AGL
Weather: -RA BR  (light rain, mist)

METAR text: UGSB 210300Z 24009KT 6000 -DZ SCT009 OVC018 08/07 Q1015 NOSIG
Conditions at: UGSB (BATUMI , GE) observed 0300 UTC 21 April 2019
Temperature: 8.0°C (46°F)
Dewpoint: 7.0°C (45°F) [RH = 93%]
Pressure (altimeter): 29.97 inches Hg (1015.0 mb)
Winds: from the WSW (240 degrees) at 10 MPH (9 knots; 4.6 m/s)
Visibility: 4 miles ( 6 km)
Ceiling: 1800 feet AGL
Clouds: scattered clouds at 900 feet AGL
overcast cloud deck at 1800 feet AGL
Weather: -DZ  (light drizzle)

METAR text: UGSB 210230Z AUTO 22006KT 190V250 9999 BKN008 OVC022 08/07 Q1015 NOSIG
Conditions at: UGSB (BATUMI , GE) observed 0230 UTC 21 April 2019
Temperature: 8.0°C (46°F)
Dewpoint: 7.0°C (45°F) [RH = 93%]
Pressure (altimeter): 29.97 inches Hg (1015.0 mb)
Winds: from the SW (220 degrees) at 7 MPH (6 knots; 3.1 m/s)
Visibility: 6 or more miles (10+ km)
Ceiling: 800 feet AGL
Clouds: broken clouds at 800 feet AGL
overcast cloud deck at 2200 feet AGL
Weather: no significant weather observed at this time

METAR text: UGSB 210200Z AUTO 21006KT 9999 FEW010 OVC022 08/07 Q1015 NOSIG
Conditions at: UGSB (BATUMI , GE) observed 0200 UTC 21 April 2019
Temperature: 8.0°C (46°F)
Dewpoint: 7.0°C (45°F) [RH = 93%]
Pressure (altimeter): 29.97 inches Hg (1015.0 mb)
Winds: from the SSW (210 degrees) at 7 MPH (6 knots; 3.1 m/s)
Visibility: 6 or more miles (10+ km)
Ceiling: 2200 feet AGL
Clouds: few clouds at 1000 feet AGL
overcast cloud deck at 2200 feet AGL
Weather: no significant weather observed at this time

METAR text: UGSB 210130Z AUTO 20006KT 160V240 9999 SCT008 BKN010 OVC021 08/07 Q1015 NOSIG
Conditions at: UGSB (BATUMI , GE) observed 0130 UTC 21 April 2019
Temperature: 8.0°C (46°F)
Dewpoint: 7.0°C (45°F) [RH = 93%]
Pressure (altimeter): 29.97 inches Hg (1015.0 mb)
Winds: from the SSW (200 degrees) at 7 MPH (6 knots; 3.1 m/s)
Visibility: 6 or more miles (10+ km)
Ceiling: 1000 feet AGL
Clouds: scattered clouds at 800 feet AGL
broken clouds at 1000 feet AGL
overcast cloud deck at 2100 feet AGL
Weather: no significant weather observed at this time

METAR text: UGSB 210100Z 14004KT 9999 SCT010 OVC024 08/06 Q1015 NOSIG
Conditions at: UGSB (BATUMI , GE) observed 0100 UTC 21 April 2019
Temperature: 8.0°C (46°F)
Dewpoint: 6.0°C (43°F) [RH = 87%]
Pressure (altimeter): 29.97 inches Hg (1015.0 mb)
Winds: from the SE (140 degrees) at 5 MPH (4 knots; 2.1 m/s)
Visibility: 6 or more miles (10+ km)
Ceiling: 2400 feet AGL
Clouds: scattered clouds at 1000 feet AGL
overcast cloud deck at 2400 feet AGL
Weather: no significant weather observed at this time

METAR text: UGSB 210030Z 16003KT 9999 BKN029 08/07 Q1015 NOSIG
Conditions at: UGSB (BATUMI , GE) observed 0030 UTC 21 April 2019
Temperature: 8.0°C (46°F)
Dewpoint: 7.0°C (45°F) [RH = 93%]
Pressure (altimeter): 29.97 inches Hg (1015.0 mb)
Winds: from the SSE (160 degrees) at 3 MPH (3 knots; 1.5 m/s)
Visibility: 6 or more miles (10+ km)
Ceiling: 2900 feet AGL
Clouds: broken clouds at 2900 feet AGL
Weather: no significant weather observed at this time

METAR text: UGSB 210000Z 20004KT 9999 SCT024 OVC032 08/06 Q1016 NOSIG
Conditions at: UGSB (BATUMI , GE) observed 0000 UTC 21 April 2019
Temperature: 8.0°C (46°F)
Dewpoint: 6.0°C (43°F) [RH = 87%]
Pressure (altimeter): 30.00 inches Hg (1016.0 mb)
Winds: from the SSW (200 degrees) at 5 MPH (4 knots; 2.1 m/s)
Visibility: 6 or more miles (10+ km)
Ceiling: 3200 feet AGL
Clouds: scattered clouds at 2400 feet AGL
overcast cloud deck at 3200 feet AGL
Weather: no significant weather observed at this time

METAR text: UGSB 202330Z 16004KT 130V190 9999 BKN023 OVC034 08/06 Q1016 NOSIG
Conditions at: UGSB (BATUMI , GE) observed 2330 UTC 20 April 2019
Temperature: 8.0°C (46°F)
Dewpoint: 6.0°C (43°F) [RH = 87%]
Pressure (altimeter): 30.00 inches Hg (1016.0 mb)
Winds: from the SSE (160 degrees) at 5 MPH (4 knots; 2.1 m/s)
Visibility: 6 or more miles (10+ km)
Ceiling: 2300 feet AGL
Clouds: broken clouds at 2300 feet AGL
overcast cloud deck at 3400 feet AGL
Weather: no significant weather observed at this time

METAR text: UGSB 202300Z 12004KT 9999 SCT024 OVC032 08/06 Q1016 NOSIG
Conditions at: UGSB (BATUMI , GE) observed 2300 UTC 20 April 2019
Temperature: 8.0°C (46°F)
Dewpoint: 6.0°C (43°F) [RH = 87%]
Pressure (altimeter): 30.00 inches Hg (1016.0 mb)
Winds: from the ESE (120 degrees) at 5 MPH (4 knots; 2.1 m/s)
Visibility: 6 or more miles (10+ km)
Ceiling: 3200 feet AGL
Clouds: scattered clouds at 2400 feet AGL
overcast cloud deck at 3200 feet AGL
Weather: no significant weather observed at this time

METAR text: UGSB 202230Z 13004KT 9999 SCT030 OVC041 08/06 Q1017 NOSIG
Conditions at: UGSB (BATUMI , GE) observed 2230 UTC 20 April 2019
Temperature: 8.0°C (46°F)
Dewpoint: 6.0°C (43°F) [RH = 87%]
Pressure (altimeter): 30.03 inches Hg (1017.0 mb)
Winds: from the SE (130 degrees) at 5 MPH (4 knots; 2.1 m/s)
Visibility: 6 or more miles (10+ km)
Ceiling: 4100 feet AGL
Clouds: scattered clouds at 3000 feet AGL
overcast cloud deck at 4100 feet AGL
Weather: no significant weather observed at this time

METAR text: UGSB 202200Z 13004KT 9999 SCT030 OVC039 08/06 Q1017 NOSIG
Conditions at: UGSB (BATUMI , GE) observed 2200 UTC 20 April 2019
Temperature: 8.0°C (46°F)
Dewpoint: 6.0°C (43°F) [RH = 87%]
Pressure (altimeter): 30.03 inches Hg (1017.0 mb)
Winds: from the SE (130 degrees) at 5 MPH (4 knots; 2.1 m/s)
Visibility: 6 or more miles (10+ km)
Ceiling: 3900 feet AGL
Clouds: scattered clouds at 3000 feet AGL
overcast cloud deck at 3900 feet AGL
Weather: no significant weather observed at this time

METAR text: UGSB 202130Z 13004KT 9999 SCT031 OVC042 08/06 Q1017 NOSIG
Conditions at: UGSB (BATUMI , GE) observed 2130 UTC 20 April 2019
Temperature: 8.0°C (46°F)
Dewpoint: 6.0°C (43°F) [RH = 87%]
Pressure (altimeter): 30.03 inches Hg (1017.0 mb)
Winds: from the SE (130 degrees) at 5 MPH (4 knots; 2.1 m/s)
Visibility: 6 or more miles (10+ km)
Ceiling: 4200 feet AGL
Clouds: scattered clouds at 3100 feet AGL
overcast cloud deck at 4200 feet AGL
Weather: no significant weather observed at this time

METAR text: UGSB 202100Z 12003KT 9999 SCT033 OVC042 08/06 Q1018 NOSIG
Conditions at: UGSB (BATUMI , GE) observed 2100 UTC 20 April 2019
Temperature: 8.0°C (46°F)
Dewpoint: 6.0°C (43°F) [RH = 87%]
Pressure (altimeter): 30.06 inches Hg (1018.0 mb)
Winds: from the ESE (120 degrees) at 3 MPH (3 knots; 1.5 m/s)
Visibility: 6 or more miles (10+ km)
Ceiling: 4200 feet AGL
Clouds: scattered clouds at 3300 feet AGL
overcast cloud deck at 4200 feet AGL
Weather: no significant weather observed at this time

METAR text: UGSB 202030Z 13005KT 9999 SCT033 OVC045 08/06 Q1018 NOSIG
Conditions at: UGSB (BATUMI , GE) observed 2030 UTC 20 April 2019
Temperature: 8.0°C (46°F)
Dewpoint: 6.0°C (43°F) [RH = 87%]
Pressure (altimeter): 30.06 inches Hg (1018.0 mb)
Winds: from the SE (130 degrees) at 6 MPH (5 knots; 2.6 m/s)
Visibility: 6 or more miles (10+ km)
Ceiling: 4500 feet AGL
Clouds: scattered clouds at 3300 feet AGL
overcast cloud deck at 4500 feet AGL
Weather: no significant weather observed at this time

METAR text: UGSB 202000Z 11003KT 080V140 9999 SCT034 OVC043 08/06 Q1018 NOSIG
Conditions at: UGSB (BATUMI , GE) observed 2000 UTC 20 April 2019
Temperature: 8.0°C (46°F)
Dewpoint: 6.0°C (43°F) [RH = 87%]
Pressure (altimeter): 30.06 inches Hg (1018.0 mb)
Winds: from the ESE (110 degrees) at 3 MPH (3 knots; 1.5 m/s)
Visibility: 6 or more miles (10+ km)
Ceiling: 4300 feet AGL
Clouds: scattered clouds at 3400 feet AGL
overcast cloud deck at 4300 feet AGL
Weather: no significant weather observed at this time

METAR text: UGSB 201930Z 13005KT 9999 FEW026 BKN044 08/06 Q1019 NOSIG
Conditions at: UGSB (BATUMI , GE) observed 1930 UTC 20 April 2019
Temperature: 8.0°C (46°F)
Dewpoint: 6.0°C (43°F) [RH = 87%]
Pressure (altimeter): 30.09 inches Hg (1019.0 mb)
Winds: from the SE (130 degrees) at 6 MPH (5 knots; 2.6 m/s)
Visibility: 6 or more miles (10+ km)
Ceiling: 4400 feet AGL
Clouds: few clouds at 2600 feet AGL
broken clouds at 4400 feet AGL
Weather: no significant weather observed at this time

METAR text: UGSB 201900Z 13005KT 9999 SCT029 BKN063 08/06 Q1019 NOSIG
Conditions at: UGSB (BATUMI , GE) observed 1900 UTC 20 April 2019
Temperature: 8.0°C (46°F)
Dewpoint: 6.0°C (43°F) [RH = 87%]
Pressure (altimeter): 30.09 inches Hg (1019.0 mb)
Winds: from the SE (130 degrees) at 6 MPH (5 knots; 2.6 m/s)
Visibility: 6 or more miles (10+ km)
Ceiling: 6300 feet AGL
Clouds: scattered clouds at 2900 feet AGL
broken clouds at 6300 feet AGL
Weather: no significant weather observed at this time

METAR text: UGSB 201830Z 13006KT 9999 SCT027 BKN064 08/06 Q1019 NOSIG
Conditions at: UGSB (BATUMI , GE) observed 1830 UTC 20 April 2019
Temperature: 8.0°C (46°F)
Dewpoint: 6.0°C (43°F) [RH = 87%]
Pressure (altimeter): 30.09 inches Hg (1019.0 mb)
Winds: from the SE (130 degrees) at 7 MPH (6 knots; 3.1 m/s)
Visibility: 6 or more miles (10+ km)
Ceiling: 6400 feet AGL
Clouds: scattered clouds at 2700 feet AGL
broken clouds at 6400 feet AGL
Weather: no significant weather observed at this time

METAR text: UGSB 201800Z 13005KT 9999 SCT032 BKN061 08/06 Q1019 NOSIG
Conditions at: UGSB (BATUMI , GE) observed 1800 UTC 20 April 2019
Temperature: 8.0°C (46°F)
Dewpoint: 6.0°C (43°F) [RH = 87%]
Pressure (altimeter): 30.09 inches Hg (1019.0 mb)
Winds: from the SE (130 degrees) at 6 MPH (5 knots; 2.6 m/s)
Visibility: 6 or more miles (10+ km)
Ceiling: 6100 feet AGL
Clouds: scattered clouds at 3200 feet AGL
broken clouds at 6100 feet AGL
Weather: no significant weather observed at this time

METAR text: UGSB 201730Z 14005KT 9999 SCT030 BKN052 08/06 Q1019 NOSIG
Conditions at: UGSB (BATUMI , GE) observed 1730 UTC 20 April 2019
Temperature: 8.0°C (46°F)
Dewpoint: 6.0°C (43°F) [RH = 87%]
Pressure (altimeter): 30.09 inches Hg (1019.0 mb)
Winds: from the SE (140 degrees) at 6 MPH (5 knots; 2.6 m/s)
Visibility: 6 or more miles (10+ km)
Ceiling: 5200 feet AGL
Clouds: scattered clouds at 3000 feet AGL
broken clouds at 5200 feet AGL
Weather: no significant weather observed at this time

METAR text: UGSB 201700Z 14005KT 9999 SCT029 BKN051 08/06 Q1019 NOSIG
Conditions at: UGSB (BATUMI , GE) observed 1700 UTC 20 April 2019
Temperature: 8.0°C (46°F)
Dewpoint: 6.0°C (43°F) [RH = 87%]
Pressure (altimeter): 30.09 inches Hg (1019.0 mb)
Winds: from the SE (140 degrees) at 6 MPH (5 knots; 2.6 m/s)
Visibility: 6 or more miles (10+ km)
Ceiling: 5100 feet AGL
Clouds: scattered clouds at 2900 feet AGL
broken clouds at 5100 feet AGL
Weather: no significant weather observed at this time

METAR text: UGSB 201630Z 14003KT 9999 SCT029 BKN053 09/07 Q1019 NOSIG
Conditions at: UGSB (BATUMI , GE) observed 1630 UTC 20 April 2019
Temperature: 9.0°C (48°F)
Dewpoint: 7.0°C (45°F) [RH = 87%]
Pressure (altimeter): 30.09 inches Hg (1019.0 mb)
Winds: from the SE (140 degrees) at 3 MPH (3 knots; 1.5 m/s)
Visibility: 6 or more miles (10+ km)
Ceiling: 5300 feet AGL
Clouds: scattered clouds at 2900 feet AGL
broken clouds at 5300 feet AGL
Weather: no significant weather observed at this time

METAR text: UGSB 201600Z 24004KT 200V290 9999 SCT027 BKN053 09/05 Q1019 NOSIG
Conditions at: UGSB (BATUMI , GE) observed 1600 UTC 20 April 2019
Temperature: 9.0°C (48°F)
Dewpoint: 5.0°C (41°F) [RH = 76%]
Pressure (altimeter): 30.09 inches Hg (1019.0 mb)
Winds: from the WSW (240 degrees) at 5 MPH (4 knots; 2.1 m/s)
Visibility: 6 or more miles (10+ km)
Ceiling: 5300 feet AGL
Clouds: scattered clouds at 2700 feet AGL
broken clouds at 5300 feet AGL
Weather: no significant weather observed at this time

METAR text: UGSB 201530Z 30005KT 270V330 9999 SCT026 BKN051 10/05 Q1019 NOSIG
Conditions at: UGSB (BATUMI , GE) observed 1530 UTC 20 April 2019
Temperature: 10.0°C (50°F)
Dewpoint: 5.0°C (41°F) [RH = 71%]
Pressure (altimeter): 30.09 inches Hg (1019.0 mb)
Winds: from the WNW (300 degrees) at 6 MPH (5 knots; 2.6 m/s)
Visibility: 6 or more miles (10+ km)
Ceiling: 5100 feet AGL
Clouds: scattered clouds at 2600 feet AGL
broken clouds at 5100 feet AGL
Weather: no significant weather observed at this time

METAR text: UGSB 201500Z 29005KT 270V330 9999 SCT030 BKN052 10/05 Q1019 NOSIG
Conditions at: UGSB (BATUMI , GE) observed 1500 UTC 20 April 2019
Temperature: 10.0°C (50°F)
Dewpoint: 5.0°C (41°F) [RH = 71%]
Pressure (altimeter): 30.09 inches Hg (1019.0 mb)
Winds: from the WNW (290 degrees) at 6 MPH (5 knots; 2.6 m/s)
Visibility: 6 or more miles (10+ km)
Ceiling: 5200 feet AGL
Clouds: scattered clouds at 3000 feet AGL
broken clouds at 5200 feet AGL
Weather: no significant weather observed at this time

Forecast for: UGSB (BATUMI , GE)
Text: TAF UGSB 212300Z 2200/2224 14007KT 9999 -RA SCT015 BKN025 TX11/2210Z TN07/2201Z
Forecast period: 0000 to 0600 UTC 22 April 2019
Forecast type: FROM: standard forecast or significant change
Winds: from the SE (140 degrees) at 8 MPH (7 knots; 3.6 m/s)
Visibility: 6 or more miles 10+ km)
Ceiling: 2500 feet AGL
Clouds: scattered clouds at 1500 feet AGL
broken clouds at 2500 feet AGL
Weather: -RA  (light rain)
Text: TEMPO 2200/2206 23010KT 5000 SHRA SCT010 OVC025CB
Forecast period: 0000 to 0600 UTC 22 April 2019
Forecast type: TEMPORARY: The following changes expected for less than half the time period
Winds: from the SW (230 degrees) at 12 MPH (10 knots; 5.1 m/s)
Visibility: 3 miles (5 km)
Ceiling: 2500 feet AGL
Clouds: scattered clouds at 1000 feet AGL
overcast cloud deck at 2500 feet AGL
Weather: SHRA  (rain showers)
Text: BECMG 2206/2208 23010KT
Forecast period: 0600 UTC 22 April 2019 to 0000 UTC 23 April 2019
Forecast type: BECOMING: Conditions expected to become as follows by 0800 UTC 22 April 2019
Winds: from the SW (230 degrees) at 12 MPH (10 knots; 5.1 m/s)
Visibility: 6 or more miles 10+ km)
Ceiling: 2500 feet AGL
Clouds: scattered clouds at 1500 feet AGL
broken clouds at 2500 feet AGL
Weather: -RA  (light rain)
Text: TEMPO 2212/2224 5000 SHRA SCT010 OVC020CB
Forecast period: 1200 UTC 22 April 2019 to 0000 UTC 23 April 2019
Forecast type: TEMPORARY: The following changes expected for less than half the time period
Visibility: 3 miles (5 km)
Ceiling: 2000 feet AGL
Clouds: scattered clouds at 1000 feet AGL
overcast cloud deck at 2000 feet AGL
Weather: SHRA  (rain showers)